createdAt,value
2023-04-17T00:01:08.265Z,48.70
2023-04-17T00:04:13.047Z,48.81
2023-04-17T00:07:16.185Z,48.75
2023-04-17T00:10:20.455Z,48.89
2023-04-17T00:13:23.378Z,48.96
2023-04-17T00:16:27.237Z,48.98
2023-04-17T00:19:30.240Z,49.03
2023-04-17T00:22:33.875Z,48.92
2023-04-17T00:25:38.154Z,49.05
2023-04-17T00:28:41.040Z,48.95
2023-04-17T00:31:44.093Z,48.98
2023-04-17T00:34:47.201Z,49.04
2023-04-17T00:37:50.097Z,48.96
2023-04-17T00:40:54.371Z,48.99
2023-04-17T00:43:57.282Z,49.07
2023-04-17T00:47:00.256Z,49.08
2023-04-17T00:50:03.920Z,49.07
2023-04-17T00:53:07.556Z,49.16
2023-04-17T00:56:12.116Z,49.07
2023-04-17T00:59:18.029Z,49.17
2023-04-17T01:02:21.307Z,49.17
2023-04-17T01:05:24.626Z,49.27
2023-04-17T01:08:27.799Z,49.25
2023-04-17T01:11:32.204Z,49.14
2023-04-17T01:14:35.338Z,49.18
2023-04-17T01:17:38.357Z,49.21
2023-04-17T01:20:41.436Z,49.11
2023-04-17T01:23:46.995Z,49.23
2023-04-17T01:26:51.379Z,49.13
2023-04-17T01:29:55.886Z,49.16
2023-04-17T01:32:59.157Z,49.09
2023-04-17T01:36:02.081Z,49.02
2023-04-17T01:39:05.199Z,49.03
2023-04-17T01:42:09.666Z,49.16
2023-04-17T01:45:12.706Z,49.18
2023-04-17T01:48:16.427Z,49.31
2023-04-17T01:51:19.331Z,49.17
2023-04-17T01:54:22.431Z,49.15
2023-04-17T01:57:28.079Z,49.10
2023-04-17T02:00:31.008Z,49.18
2023-04-17T02:03:34.215Z,49.18
2023-04-17T02:06:37.219Z,49.20
2023-04-17T02:09:40.152Z,49.19
2023-04-17T02:12:45.168Z,49.25
2023-04-17T02:15:48.192Z,49.10
2023-04-17T02:18:51.655Z,49.25
2023-04-17T02:21:54.606Z,49.25
2023-04-17T02:24:57.555Z,49.20
2023-04-17T02:28:03.794Z,49.19
2023-04-17T02:31:08.233Z,49.20
2023-04-17T02:34:11.168Z,49.23
2023-04-17T02:37:15.803Z,49.14
2023-04-17T02:40:18.978Z,49.12
2023-04-17T02:43:28.061Z,49.17
2023-04-17T02:46:32.342Z,49.25
2023-04-17T02:49:35.597Z,49.25
2023-04-17T02:52:38.580Z,49.28
2023-04-17T02:55:41.834Z,49.13
2023-04-17T02:58:46.270Z,49.28
2023-04-17T03:01:49.150Z,49.06
2023-04-17T03:04:54.599Z,49.11
2023-04-17T03:07:58.329Z,49.09
2023-04-17T03:11:03.938Z,49.07
2023-04-17T03:14:08.247Z,48.95
2023-04-17T03:17:14.118Z,48.93
2023-04-17T03:20:17.925Z,48.71
2023-04-17T03:23:20.970Z,48.60
2023-04-17T03:26:24.088Z,48.63
2023-04-17T03:29:28.366Z,48.49
2023-04-17T03:32:31.351Z,48.57
2023-04-17T03:35:34.333Z,48.47
2023-04-17T03:38:41.561Z,48.49
2023-04-17T03:41:44.661Z,48.49
2023-04-17T03:44:49.748Z,48.45
2023-04-17T03:47:52.780Z,48.52
2023-04-17T03:50:56.994Z,48.47
2023-04-17T03:54:00.119Z,48.40
2023-04-17T03:57:03.815Z,48.42
2023-04-17T04:00:10.560Z,48.36
2023-04-17T04:03:31.708Z,48.43
2023-04-17T04:06:37.594Z,48.37
2023-04-17T04:09:41.399Z,48.43
2023-04-17T04:12:45.395Z,48.19
2023-04-17T04:15:51.422Z,48.38
2023-04-17T04:18:56.370Z,48.36
2023-04-17T04:21:59.280Z,48.34
2023-04-17T04:25:12.284Z,48.41
2023-04-17T04:28:40.570Z,48.37
2023-04-17T04:31:52.442Z,48.39
2023-04-17T04:35:01.567Z,48.37
2023-04-17T04:38:04.891Z,48.36
2023-04-17T04:41:10.563Z,48.36
2023-04-17T04:44:15.504Z,48.41
2023-04-17T04:47:21.090Z,48.42
2023-04-17T04:50:25.589Z,48.46
2023-04-17T04:53:29.070Z,48.48
2023-04-17T04:56:34.182Z,48.52
2023-04-17T04:59:38.970Z,48.43
2023-04-17T05:03:15.778Z,48.51
2023-04-17T05:06:19.676Z,48.59
2023-04-17T05:09:27.170Z,48.52
2023-04-17T05:12:33.257Z,48.61
2023-04-17T05:15:36.294Z,48.50
2023-04-17T05:18:41.498Z,48.58
2023-04-17T05:21:47.283Z,48.62
2023-04-17T05:24:52.352Z,48.54
2023-04-17T05:27:55.326Z,48.70
2023-04-17T05:30:58.822Z,48.62
2023-04-17T05:34:09.602Z,48.63
2023-04-17T05:37:13.245Z,48.60
2023-04-17T05:40:16.399Z,48.61
2023-04-17T05:43:19.288Z,48.69
2023-04-17T05:46:22.301Z,48.67
2023-04-17T05:49:26.652Z,48.63
2023-04-17T05:52:29.508Z,48.62
2023-04-17T05:55:32.902Z,48.66
2023-04-17T05:58:38.453Z,48.59
2023-04-17T06:01:43.629Z,48.57
2023-04-17T06:04:48.131Z,48.49
2023-04-17T06:07:51.330Z,48.58
2023-04-17T06:10:55.976Z,48.56
2023-04-17T06:13:58.915Z,48.50
2023-04-17T06:17:02.794Z,48.58
2023-04-17T06:20:10.468Z,48.50
2023-04-17T06:23:13.665Z,48.67
2023-04-17T06:26:16.606Z,48.60
2023-04-17T06:29:19.512Z,48.58
2023-04-17T06:32:24.933Z,48.60
2023-04-17T06:35:29.614Z,48.65
2023-04-17T06:38:44.969Z,48.64
2023-04-17T06:41:50.270Z,48.54
2023-04-17T06:45:01.709Z,48.57
2023-04-17T06:48:04.778Z,48.80
2023-04-17T06:51:09.122Z,48.81
2023-04-17T06:54:12.194Z,48.95
2023-04-17T06:57:15.046Z,49.03
2023-04-17T07:00:18.748Z,49.08
2023-04-17T07:03:21.870Z,48.97
2023-04-17T07:06:26.916Z,49.12
2023-04-17T07:09:29.844Z,48.96
2023-04-17T07:12:32.781Z,49.06
2023-04-17T07:15:35.694Z,49.22
2023-04-17T07:18:38.676Z,49.18
2023-04-17T07:21:43.058Z,49.13
2023-04-17T07:24:46.288Z,49.21
2023-04-17T07:27:49.224Z,49.06
2023-04-17T07:30:54.891Z,49.24
2023-04-17T07:33:57.880Z,49.15
2023-04-17T07:37:02.400Z,49.18
2023-04-17T07:40:10.513Z,49.23
2023-04-17T07:43:13.421Z,49.25
2023-04-17T07:46:16.503Z,49.20
2023-04-17T07:49:19.387Z,49.21
2023-04-17T07:52:23.864Z,49.19
2023-04-17T07:55:26.706Z,49.29
2023-04-17T07:58:29.759Z,49.25
2023-04-17T08:01:33.860Z,49.13
2023-04-17T08:04:37.732Z,48.53
2023-04-17T08:07:43.331Z,47.50
2023-04-17T08:10:46.503Z,46.29
2023-04-17T08:13:49.410Z,45.17
2023-04-17T08:16:52.400Z,45.15
2023-04-17T08:19:57.443Z,45.19
2023-04-17T08:23:01.780Z,45.37
2023-04-17T08:26:05.331Z,45.45
2023-04-17T08:29:08.228Z,45.56
2023-04-17T08:32:15.048Z,45.91
2023-04-17T08:35:18.520Z,46.06
2023-04-17T08:38:22.829Z,46.18
2023-04-17T08:41:34.268Z,46.23
2023-04-17T08:44:37.629Z,46.35
2023-04-17T08:47:41.338Z,46.35
2023-04-17T08:53:53.543Z,46.51
2023-04-17T08:56:56.946Z,46.61
2023-04-17T09:00:00.321Z,46.69
2023-04-17T09:03:05.004Z,46.62
2023-04-17T09:06:08.232Z,46.85
2023-04-17T09:09:12.821Z,46.77
2023-04-17T09:12:16.194Z,46.65
2023-04-17T09:15:19.346Z,46.44
2023-04-17T09:18:24.936Z,46.34
2023-04-17T09:21:29.139Z,46.25
2023-04-17T09:24:58.497Z,46.36
2023-04-17T09:28:12.771Z,46.53
2023-04-17T09:31:26.768Z,46.19
2023-04-17T09:34:29.753Z,45.88
2023-04-17T09:37:53.675Z,45.74
2023-04-17T09:40:57.981Z,45.96
2023-04-17T09:44:05.444Z,45.94
2023-04-17T09:47:11.231Z,46.04
2023-04-17T09:50:16.239Z,46.00
2023-04-17T09:53:21.035Z,46.26
2023-04-17T09:56:28.101Z,46.50
2023-04-17T09:59:31.730Z,46.52
2023-04-17T10:02:34.850Z,46.55
2023-04-17T10:05:38.443Z,46.58
2023-04-17T10:08:41.769Z,46.87
2023-04-17T10:11:47.769Z,46.73
2023-04-17T10:14:52.769Z,46.90
2023-04-17T10:17:57.724Z,46.97
2023-04-17T10:21:21.820Z,47.00
2023-04-17T10:24:28.430Z,47.12
2023-04-17T10:27:50.487Z,47.29
2023-04-17T10:30:55.501Z,47.33
2023-04-17T10:33:58.718Z,47.42
2023-04-17T10:37:02.956Z,47.53
2023-04-17T10:40:12.533Z,47.64
2023-04-17T10:43:20.414Z,47.83
2023-04-17T10:46:27.147Z,47.96
2023-04-17T10:49:30.141Z,48.11
2023-04-17T10:52:40.823Z,48.16
2023-04-17T10:55:49.732Z,48.24
2023-04-17T10:59:01.481Z,48.34
2023-04-17T11:02:07.751Z,48.22
2023-04-17T11:05:12.090Z,48.35
2023-04-17T11:08:15.313Z,48.39
2023-04-17T11:11:26.911Z,48.33
2023-04-17T11:14:43.807Z,48.41
2023-04-17T11:17:49.905Z,48.42
2023-04-17T11:20:53.620Z,48.56
2023-04-17T11:23:56.525Z,48.59
2023-04-17T11:27:02.124Z,48.50
2023-04-17T11:30:08.284Z,48.36
2023-04-17T11:33:12.279Z,48.40
2023-04-17T11:36:15.449Z,48.42
2023-04-17T11:39:18.750Z,48.30
2023-04-17T11:42:27.696Z,48.47
2023-04-17T11:45:34.688Z,48.42
2023-04-17T11:48:37.842Z,48.63
2023-04-17T11:51:40.810Z,48.66
2023-04-17T11:54:43.692Z,48.76
2023-04-17T11:57:47.064Z,48.91
2023-04-17T12:01:06.215Z,49.07
2023-04-17T12:04:21.713Z,49.36
2023-04-17T12:07:25.688Z,49.26
2023-04-17T12:10:38.270Z,48.78
2023-04-17T12:13:41.190Z,48.87
2023-04-17T12:16:48.155Z,48.98
2023-04-17T12:19:51.266Z,49.14
2023-04-17T12:22:54.183Z,49.10
2023-04-17T12:25:57.086Z,49.21
2023-04-17T12:29:00.269Z,49.29
2023-04-17T12:32:05.020Z,49.41
2023-04-17T12:35:08.421Z,49.50
2023-04-17T12:38:11.311Z,49.48
2023-04-17T12:41:14.237Z,49.60
2023-04-17T12:44:17.119Z,49.73
2023-04-17T12:47:21.563Z,49.79
2023-04-17T12:50:25.195Z,49.99
2023-04-17T12:53:28.142Z,49.98
2023-04-17T12:56:31.178Z,49.97
2023-04-17T12:59:34.139Z,49.98
2023-04-17T13:02:38.633Z,49.98
2023-04-17T13:05:41.624Z,49.91
2023-04-17T13:08:44.542Z,49.85
2023-04-17T13:11:47.491Z,49.79
2023-04-17T13:14:50.454Z,49.79
2023-04-17T13:17:54.787Z,50.33
2023-04-17T13:20:58.015Z,50.14
2023-04-17T13:24:00.894Z,50.51
2023-04-17T13:27:04.062Z,50.39
2023-04-17T13:30:08.447Z,50.07
2023-04-17T13:33:12.821Z,50.03
2023-04-17T13:36:15.738Z,50.10
2023-04-17T13:39:18.846Z,49.97
2023-04-17T13:42:21.950Z,49.83
2023-04-17T13:45:24.936Z,50.07
2023-04-17T13:48:29.310Z,50.15
2023-04-17T13:51:32.727Z,49.98
2023-04-17T13:54:35.633Z,49.96
2023-04-17T13:57:38.590Z,49.87
2023-04-17T14:00:41.747Z,49.92
2023-04-17T14:03:46.474Z,49.91
2023-04-17T14:06:50.862Z,49.85
2023-04-17T14:09:53.986Z,49.93
2023-04-17T14:12:56.984Z,49.93
2023-04-17T14:16:00.341Z,49.99
2023-04-17T14:19:13.425Z,49.94
2023-04-17T14:22:17.207Z,49.89
2023-04-17T14:25:20.100Z,50.00
2023-04-17T14:28:23.792Z,50.11
2023-04-17T14:31:26.835Z,49.88
2023-04-17T14:34:31.088Z,49.92
2023-04-17T14:37:34.604Z,49.93
2023-04-17T14:40:37.845Z,49.84
2023-04-17T14:43:40.756Z,49.85
2023-04-17T14:46:44.167Z,49.88
2023-04-17T14:49:48.540Z,49.87
2023-04-17T14:52:51.849Z,50.49
2023-04-17T14:55:54.767Z,50.47
2023-04-17T14:58:57.654Z,50.65
2023-04-17T15:02:00.680Z,50.48
2023-04-17T15:05:05.305Z,50.67
2023-04-17T15:08:08.175Z,50.81
2023-04-17T15:11:11.257Z,50.76
2023-04-17T15:14:14.319Z,50.60
2023-04-17T15:17:17.736Z,50.66
2023-04-17T15:20:24.997Z,50.58
2023-04-17T15:23:29.853Z,50.46
2023-04-17T15:26:33.133Z,50.25
2023-04-17T15:29:36.026Z,50.17
2023-04-17T15:32:39.285Z,50.06
2023-04-17T15:35:43.603Z,50.07
2023-04-17T15:38:46.484Z,50.01
2023-04-17T15:41:49.864Z,50.06
2023-04-17T15:44:53.120Z,49.98
2023-04-17T15:47:56.326Z,49.97
2023-04-17T15:51:00.703Z,49.99
2023-04-17T15:54:03.641Z,50.02
2023-04-17T15:57:06.593Z,49.94
2023-04-17T16:00:10.837Z,49.84
2023-04-17T16:03:14.762Z,49.87
2023-04-17T16:06:20.410Z,49.86
2023-04-17T16:09:24.538Z,49.92
2023-04-17T16:12:28.137Z,50.57
2023-04-17T16:15:31.714Z,50.70
2023-04-17T16:18:34.651Z,50.59
2023-04-17T16:21:39.073Z,50.62
2023-04-17T16:24:41.983Z,50.46
2023-04-17T16:27:44.899Z,50.23
2023-04-17T16:30:47.999Z,50.25
2023-04-17T16:33:50.912Z,50.41
2023-04-17T16:36:55.133Z,50.66
2023-04-17T16:40:03.100Z,50.81
2023-04-17T16:43:06.054Z,50.99
2023-04-17T16:46:20.503Z,50.93
2023-04-17T16:49:25.666Z,50.92
2023-04-17T16:52:29.964Z,50.98
2023-04-17T16:55:32.950Z,50.95
2023-04-17T16:58:35.847Z,50.94
2023-04-17T17:01:38.775Z,50.94
2023-04-17T17:04:41.771Z,50.92
2023-04-17T17:07:46.086Z,50.94
2023-04-17T17:10:49.870Z,50.90
2023-04-17T17:13:54.147Z,50.86
2023-04-17T17:16:57.192Z,50.88
2023-04-17T17:20:00.461Z,50.82
2023-04-17T17:23:04.830Z,50.83
2023-04-17T17:26:07.893Z,50.72
2023-04-17T17:29:10.858Z,50.90
2023-04-17T17:32:14.080Z,50.84
2023-04-17T17:35:17.095Z,50.74
2023-04-17T17:38:21.359Z,50.79
2023-04-17T17:41:24.455Z,50.90
2023-04-17T17:44:27.310Z,50.78
2023-04-17T17:47:30.663Z,50.83
2023-04-17T17:50:33.592Z,50.70
2023-04-17T17:53:37.930Z,50.65
2023-04-17T17:56:40.825Z,50.77
2023-04-17T17:59:43.892Z,50.85
2023-04-17T18:02:46.880Z,50.84
2023-04-17T18:05:49.906Z,50.78
2023-04-17T18:08:54.204Z,50.91
2023-04-17T18:11:57.146Z,50.88
2023-04-17T18:15:00.023Z,50.87
2023-04-17T18:18:02.949Z,51.00
2023-04-17T18:21:07.290Z,50.91
2023-04-17T18:24:12.003Z,50.88
2023-04-17T18:27:15.121Z,50.74
2023-04-17T18:30:18.029Z,50.78
2023-04-17T18:33:20.957Z,50.84
2023-04-17T18:36:23.855Z,50.75
2023-04-17T18:39:28.079Z,50.69
2023-04-17T18:42:30.973Z,50.70
2023-04-17T18:45:33.884Z,50.75
2023-04-17T18:48:36.831Z,50.73
2023-04-17T18:51:39.794Z,50.82
2023-04-17T18:54:44.154Z,50.83
2023-04-17T18:57:47.060Z,50.84
2023-04-17T19:00:50.036Z,50.82
2023-04-17T19:03:53.071Z,50.83
2023-04-17T19:06:55.946Z,50.87
2023-04-17T19:10:00.355Z,50.86
2023-04-17T19:13:05.315Z,50.74
2023-04-17T19:16:08.236Z,50.87
2023-04-17T19:19:13.588Z,50.86
2023-04-17T19:22:17.937Z,50.96
2023-04-17T19:25:22.244Z,50.93
2023-04-17T19:28:27.357Z,50.85
2023-04-17T19:31:30.250Z,50.99
2023-04-17T19:34:33.108Z,50.87
2023-04-17T19:37:35.960Z,50.90
2023-04-17T19:40:40.228Z,50.98
2023-04-17T19:43:43.161Z,50.79
2023-04-17T19:46:46.146Z,50.89
2023-04-17T19:49:49.056Z,50.90
2023-04-17T19:52:52.057Z,50.92
2023-04-17T19:55:56.552Z,50.88
2023-04-17T19:59:02.860Z,50.87
2023-04-17T20:02:06.029Z,50.98
2023-04-17T20:05:10.161Z,50.90
2023-04-17T20:08:14.156Z,50.86
2023-04-17T20:11:18.605Z,50.87
2023-04-17T20:14:21.638Z,50.93
2023-04-17T20:17:24.598Z,51.05
2023-04-17T20:20:27.524Z,50.89
2023-04-17T20:23:30.672Z,50.99
2023-04-17T20:26:37.259Z,50.90
2023-04-17T20:29:40.533Z,50.89
2023-04-17T20:32:43.577Z,50.81
2023-04-17T20:35:46.633Z,50.78
2023-04-17T20:38:49.508Z,50.84
2023-04-17T20:41:53.901Z,50.79
2023-04-17T20:44:56.802Z,50.81
2023-04-17T20:47:59.756Z,50.81
2023-04-17T20:51:05.472Z,50.77
2023-04-17T20:54:08.429Z,50.83
2023-04-17T20:57:12.693Z,50.78
2023-04-17T21:00:15.901Z,50.88
2023-04-17T21:03:19.132Z,50.82
2023-04-17T21:06:22.928Z,50.76
2023-04-17T21:09:26.365Z,50.83
2023-04-17T21:12:32.907Z,50.75
2023-04-17T21:15:36.198Z,50.98
2023-04-17T21:18:39.154Z,50.80
2023-04-17T21:21:42.237Z,50.69
2023-04-17T21:24:45.150Z,50.69
2023-04-17T21:27:49.492Z,50.72
2023-04-17T21:30:52.425Z,50.88
2023-04-17T21:33:55.348Z,51.05
2023-04-17T21:37:01.297Z,51.05
2023-04-17T21:40:04.446Z,51.05
2023-04-17T21:43:08.741Z,51.10
2023-04-17T21:46:12.096Z,51.10
2023-04-17T21:49:15.133Z,51.13
2023-04-17T21:52:18.296Z,51.15
2023-04-17T21:55:21.301Z,51.10
2023-04-17T21:58:25.594Z,51.11
2023-04-17T22:01:28.681Z,51.01
2023-04-17T22:04:31.682Z,50.70
2023-04-17T22:07:43.857Z,50.42
2023-04-17T22:10:54.539Z,50.11
2023-04-17T22:13:58.790Z,50.05
2023-04-17T22:17:01.727Z,49.96
2023-04-17T22:20:05.094Z,49.89
2023-04-17T22:23:08.137Z,49.81
2023-04-17T22:26:11.128Z,49.69
2023-04-17T22:29:15.725Z,49.67
2023-04-17T22:32:18.632Z,49.65
2023-04-17T22:35:21.539Z,49.64
2023-04-17T22:38:24.481Z,49.65
2023-04-17T22:41:27.394Z,49.66
2023-04-17T22:44:31.669Z,49.79
2023-04-17T22:47:34.669Z,49.78
2023-04-17T22:50:39.360Z,49.67
2023-04-17T22:53:42.250Z,49.73
2023-04-17T22:56:45.159Z,49.73
2023-04-17T22:59:49.392Z,49.79
2023-04-17T23:02:52.371Z,49.83
2023-04-17T23:05:55.517Z,49.86
2023-04-17T23:08:58.407Z,49.86
2023-04-17T23:12:02.007Z,49.83
2023-04-17T23:15:08.315Z,49.81
2023-04-17T23:18:11.500Z,49.74
2023-04-17T23:21:14.600Z,49.69
2023-04-17T23:24:17.503Z,49.84
2023-04-17T23:27:20.926Z,49.81
2023-04-17T23:30:25.273Z,49.83
2023-04-17T23:33:28.206Z,49.98
2023-04-17T23:36:31.676Z,50.06
2023-04-17T23:39:35.510Z,50.05
2023-04-17T23:42:38.461Z,50.00
2023-04-17T23:45:42.798Z,49.92
2023-04-17T23:48:45.879Z,49.90
2023-04-17T23:51:48.739Z,49.83
2023-04-17T23:54:51.639Z,49.88
2023-04-17T23:57:54.714Z,50.12
